sensor_id;sensor_type;location;lat;lon;timestamp;P1;durP1;ratioP1;P2;durP2;ratioP2
10491;SDS011;5293;51.464;-2.566;2023-07-24T00:02:09;3.67;;;1.90;;
10491;SDS011;5293;51.464;-2.566;2023-07-24T00:04:35;6.03;;;2.10;;
10491;SDS011;5293;51.464;-2.566;2023-07-24T00:07:00;4.80;;;1.80;;
10491;SDS011;5293;51.464;-2.566;2023-07-24T00:09:26;5.20;;;1.80;;
10491;SDS011;5293;51.464;-2.566;2023-07-24T00:11:51;2.43;;;1.50;;
10491;SDS011;5293;51.464;-2.566;2023-07-24T00:14:17;4.40;;;1.73;;
10491;SDS011;5293;51.464;-2.566;2023-07-24T00:16:43;8.87;;;1.70;;
10491;SDS011;5293;51.464;-2.566;2023-07-24T00:19:08;3.30;;;1.70;;
10491;SDS011;5293;51.464;-2.566;2023-07-24T00:21:34;5.43;;;2.00;;
10491;SDS011;5293;51.464;-2.566;2023-07-24T00:24:00;2.80;;;1.47;;
10491;SDS011;5293;51.464;-2.566;2023-07-24T00:26:25;4.67;;;1.73;;
10491;SDS011;5293;51.464;-2.566;2023-07-24T00:28:51;3.00;;;1.90;;
10491;SDS011;5293;51.464;-2.566;2023-07-24T00:31:17;2.57;;;1.57;;
10491;SDS011;5293;51.464;-2.566;2023-07-24T00:33:42;6.93;;;1.90;;
10491;SDS011;5293;51.464;-2.566;2023-07-24T00:36:08;5.43;;;2.17;;
10491;SDS011;5293;51.464;-2.566;2023-07-24T00:38:34;5.03;;;1.77;;
10491;SDS011;5293;51.464;-2.566;2023-07-24T00:40:59;3.03;;;1.93;;
10491;SDS011;5293;51.464;-2.566;2023-07-24T00:43:25;4.00;;;2.00;;
10491;SDS011;5293;51.464;-2.566;2023-07-24T00:45:51;3.47;;;2.00;;
10491;SDS011;5293;51.464;-2.566;2023-07-24T00:48:16;5.53;;;1.90;;
10491;SDS011;5293;51.464;-2.566;2023-07-24T00:50:42;6.63;;;2.10;;
10491;SDS011;5293;51.464;-2.566;2023-07-24T00:53:10;4.97;;;1.70;;
10491;SDS011;5293;51.464;-2.566;2023-07-24T00:55:37;3.13;;;1.70;;
10491;SDS011;5293;51.464;-2.566;2023-07-24T00:58:03;4.07;;;1.70;;
10491;SDS011;5293;51.464;-2.566;2023-07-24T01:00:29;4.00;;;1.67;;
10491;SDS011;5293;51.464;-2.566;2023-07-24T01:02:55;4.63;;;1.87;;
10491;SDS011;5293;51.464;-2.566;2023-07-24T01:05:22;3.43;;;1.93;;
10491;SDS011;5293;51.464;-2.566;2023-07-24T01:07:50;6.87;;;2.23;;
10491;SDS011;5293;51.464;-2.566;2023-07-24T01:10:17;3.93;;;1.60;;
10491;SDS011;5293;51.464;-2.566;2023-07-24T01:12:58;4.70;;;1.87;;
10491;SDS011;5293;51.464;-2.566;2023-07-24T01:15:38;2.77;;;2.20;;
10491;SDS011;5293;51.464;-2.566;2023-07-24T01:18:09;6.87;;;1.80;;
10491;SDS011;5293;51.464;-2.566;2023-07-24T01:20:37;2.60;;;1.73;;
10491;SDS011;5293;51.464;-2.566;2023-07-24T01:23:17;5.73;;;1.97;;
10491;SDS011;5293;51.464;-2.566;2023-07-24T01:25:51;4.47;;;2.50;;
10491;SDS011;5293;51.464;-2.566;2023-07-24T01:28:22;3.57;;;2.10;;
10491;SDS011;5293;51.464;-2.566;2023-07-24T01:30:48;3.87;;;1.90;;
10491;SDS011;5293;51.464;-2.566;2023-07-24T01:33:14;4.37;;;1.90;;
10491;SDS011;5293;51.464;-2.566;2023-07-24T01:35:40;3.20;;;2.03;;
10491;SDS011;5293;51.464;-2.566;2023-07-24T01:38:09;4.37;;;2.40;;
10491;SDS011;5293;51.464;-2.566;2023-07-24T01:40:41;3.80;;;2.20;;
10491;SDS011;5293;51.464;-2.566;2023-07-24T01:43:08;3.03;;;2.13;;
10491;SDS011;5293;51.464;-2.566;2023-07-24T01:45:34;3.57;;;1.97;;
10491;SDS011;5293;51.464;-2.566;2023-07-24T01:48:01;2.60;;;1.93;;
10491;SDS011;5293;51.464;-2.566;2023-07-24T01:50:28;2.77;;;1.80;;
10491;SDS011;5293;51.464;-2.566;2023-07-24T01:52:54;4.77;;;1.93;;
10491;SDS011;5293;51.464;-2.566;2023-07-24T01:55:19;7.40;;;2.07;;
10491;SDS011;5293;51.464;-2.566;2023-07-24T01:57:45;4.53;;;2.20;;
10491;SDS011;5293;51.464;-2.566;2023-07-24T02:00:11;2.97;;;2.07;;
10491;SDS011;5293;51.464;-2.566;2023-07-24T02:02:37;4.83;;;2.30;;
10491;SDS011;5293;51.464;-2.566;2023-07-24T02:05:02;5.27;;;2.10;;
10491;SDS011;5293;51.464;-2.566;2023-07-24T02:07:28;4.43;;;2.10;;
10491;SDS011;5293;51.464;-2.566;2023-07-24T02:09:54;3.63;;;2.07;;
10491;SDS011;5293;51.464;-2.566;2023-07-24T02:12:20;4.40;;;2.20;;
10491;SDS011;5293;51.464;-2.566;2023-07-24T02:14:45;4.77;;;2.20;;
10491;SDS011;5293;51.464;-2.566;2023-07-24T02:17:14;6.77;;;2.60;;
10491;SDS011;5293;51.464;-2.566;2023-07-24T02:19:41;5.53;;;2.13;;
10491;SDS011;5293;51.464;-2.566;2023-07-24T02:22:06;3.77;;;1.70;;
10491;SDS011;5293;51.464;-2.566;2023-07-24T02:24:32;5.37;;;1.90;;
10491;SDS011;5293;51.464;-2.566;2023-07-24T02:26:58;3.73;;;2.63;;
10491;SDS011;5293;51.464;-2.566;2023-07-24T02:29:23;2.57;;;1.90;;
10491;SDS011;5293;51.464;-2.566;2023-07-24T02:31:50;6.17;;;2.10;;
10491;SDS011;5293;51.464;-2.566;2023-07-24T02:34:15;4.80;;;1.57;;
10491;SDS011;5293;51.464;-2.566;2023-07-24T02:36:41;5.53;;;2.27;;
10491;SDS011;5293;51.464;-2.566;2023-07-24T02:39:07;3.57;;;2.23;;
10491;SDS011;5293;51.464;-2.566;2023-07-24T02:41:33;3.80;;;1.87;;
10491;SDS011;5293;51.464;-2.566;2023-07-24T02:43:58;4.20;;;2.23;;
10491;SDS011;5293;51.464;-2.566;2023-07-24T02:46:24;2.90;;;2.50;;
10491;SDS011;5293;51.464;-2.566;2023-07-24T02:48:50;2.77;;;1.83;;
10491;SDS011;5293;51.464;-2.566;2023-07-24T02:51:16;9.63;;;2.40;;
10491;SDS011;5293;51.464;-2.566;2023-07-24T02:53:42;1.53;;;1.33;;
10491;SDS011;5293;51.464;-2.566;2023-07-24T02:56:07;3.53;;;2.00;;
10491;SDS011;5293;51.464;-2.566;2023-07-24T02:58:33;2.60;;;1.90;;
10491;SDS011;5293;51.464;-2.566;2023-07-24T03:01:02;2.57;;;1.70;;
10491;SDS011;5293;51.464;-2.566;2023-07-24T03:03:32;3.53;;;1.80;;
10491;SDS011;5293;51.464;-2.566;2023-07-24T03:05:58;3.30;;;2.07;;
10491;SDS011;5293;51.464;-2.566;2023-07-24T03:08:24;2.27;;;1.80;;
10491;SDS011;5293;51.464;-2.566;2023-07-24T03:10:50;4.67;;;1.83;;
10491;SDS011;5293;51.464;-2.566;2023-07-24T03:13:15;2.27;;;2.00;;
10491;SDS011;5293;51.464;-2.566;2023-07-24T03:15:41;6.07;;;2.37;;
10491;SDS011;5293;51.464;-2.566;2023-07-24T03:18:07;3.03;;;2.17;;
10491;SDS011;5293;51.464;-2.566;2023-07-24T03:20:32;5.47;;;2.83;;
10491;SDS011;5293;51.464;-2.566;2023-07-24T03:22:58;4.50;;;1.87;;
10491;SDS011;5293;51.464;-2.566;2023-07-24T03:25:24;3.37;;;1.77;;
10491;SDS011;5293;51.464;-2.566;2023-07-24T03:27:49;2.87;;;1.90;;
10491;SDS011;5293;51.464;-2.566;2023-07-24T03:30:15;2.80;;;1.60;;
10491;SDS011;5293;51.464;-2.566;2023-07-24T03:32:41;7.07;;;1.83;;
10491;SDS011;5293;51.464;-2.566;2023-07-24T03:35:06;2.13;;;1.67;;
10491;SDS011;5293;51.464;-2.566;2023-07-24T03:37:35;3.77;;;1.60;;
10491;SDS011;5293;51.464;-2.566;2023-07-24T03:40:01;3.77;;;1.50;;
10491;SDS011;5293;51.464;-2.566;2023-07-24T03:42:28;3.90;;;1.67;;
10491;SDS011;5293;51.464;-2.566;2023-07-24T03:44:55;1.77;;;1.60;;
10491;SDS011;5293;51.464;-2.566;2023-07-24T03:47:22;2.83;;;1.57;;
10491;SDS011;5293;51.464;-2.566;2023-07-24T03:49:48;2.40;;;1.63;;
10491;SDS011;5293;51.464;-2.566;2023-07-24T03:52:15;2.10;;;2.00;;
10491;SDS011;5293;51.464;-2.566;2023-07-24T03:54:41;3.17;;;1.57;;
10491;SDS011;5293;51.464;-2.566;2023-07-24T03:57:07;1.53;;;1.43;;
10491;SDS011;5293;51.464;-2.566;2023-07-24T03:59:32;3.30;;;1.40;;
10491;SDS011;5293;51.464;-2.566;2023-07-24T04:01:58;2.70;;;1.60;;
10491;SDS011;5293;51.464;-2.566;2023-07-24T04:04:24;4.57;;;1.60;;
10491;SDS011;5293;51.464;-2.566;2023-07-24T04:06:50;2.43;;;1.63;;
10491;SDS011;5293;51.464;-2.566;2023-07-24T04:09:15;2.00;;;1.30;;
10491;SDS011;5293;51.464;-2.566;2023-07-24T04:11:42;1.80;;;1.70;;
10491;SDS011;5293;51.464;-2.566;2023-07-24T04:14:08;1.90;;;1.67;;
10491;SDS011;5293;51.464;-2.566;2023-07-24T04:16:34;2.10;;;1.67;;
10491;SDS011;5293;51.464;-2.566;2023-07-24T04:18:59;2.30;;;1.87;;
10491;SDS011;5293;51.464;-2.566;2023-07-24T04:21:25;3.87;;;2.13;;
10491;SDS011;5293;51.464;-2.566;2023-07-24T04:23:51;4.40;;;2.00;;
10491;SDS011;5293;51.464;-2.566;2023-07-24T04:26:16;2.50;;;1.70;;
10491;SDS011;5293;51.464;-2.566;2023-07-24T04:28:42;3.67;;;2.30;;
10491;SDS011;5293;51.464;-2.566;2023-07-24T04:31:07;1.53;;;1.43;;
10491;SDS011;5293;51.464;-2.566;2023-07-24T04:33:33;2.87;;;1.80;;
10491;SDS011;5293;51.464;-2.566;2023-07-24T04:35:59;3.67;;;1.93;;
10491;SDS011;5293;51.464;-2.566;2023-07-24T04:38:25;1.70;;;1.50;;
10491;SDS011;5293;51.464;-2.566;2023-07-24T04:40:50;1.97;;;1.80;;
10491;SDS011;5293;51.464;-2.566;2023-07-24T04:43:16;2.53;;;1.60;;
10491;SDS011;5293;51.464;-2.566;2023-07-24T04:45:42;3.50;;;2.13;;
10491;SDS011;5293;51.464;-2.566;2023-07-24T04:48:07;3.17;;;2.00;;
10491;SDS011;5293;51.464;-2.566;2023-07-24T04:50:33;3.07;;;1.80;;
10491;SDS011;5293;51.464;-2.566;2023-07-24T04:52:59;3.33;;;2.10;;
10491;SDS011;5293;51.464;-2.566;2023-07-24T04:55:25;3.77;;;1.70;;
10491;SDS011;5293;51.464;-2.566;2023-07-24T04:57:50;3.60;;;1.90;;
10491;SDS011;5293;51.464;-2.566;2023-07-24T05:00:16;3.33;;;1.87;;
10491;SDS011;5293;51.464;-2.566;2023-07-24T05:02:42;2.17;;;1.97;;
10491;SDS011;5293;51.464;-2.566;2023-07-24T05:05:08;3.50;;;1.90;;
10491;SDS011;5293;51.464;-2.566;2023-07-24T05:07:34;7.33;;;2.30;;
10491;SDS011;5293;51.464;-2.566;2023-07-24T05:09:59;2.57;;;1.87;;
10491;SDS011;5293;51.464;-2.566;2023-07-24T05:12:25;2.87;;;2.10;;
10491;SDS011;5293;51.464;-2.566;2023-07-24T05:14:51;3.83;;;2.40;;
10491;SDS011;5293;51.464;-2.566;2023-07-24T05:17:16;4.33;;;2.17;;
10491;SDS011;5293;51.464;-2.566;2023-07-24T05:19:42;3.67;;;2.37;;
10491;SDS011;5293;51.464;-2.566;2023-07-24T05:22:08;3.60;;;2.20;;
10491;SDS011;5293;51.464;-2.566;2023-07-24T05:24:36;3.70;;;1.87;;
10491;SDS011;5293;51.464;-2.566;2023-07-24T05:27:02;3.27;;;2.20;;
10491;SDS011;5293;51.464;-2.566;2023-07-24T05:29:31;3.10;;;1.93;;
10491;SDS011;5293;51.464;-2.566;2023-07-24T05:31:57;1.83;;;1.70;;
10491;SDS011;5293;51.464;-2.566;2023-07-24T05:34:24;6.47;;;2.00;;
10491;SDS011;5293;51.464;-2.566;2023-07-24T05:36:50;2.27;;;2.00;;
10491;SDS011;5293;51.464;-2.566;2023-07-24T05:39:15;2.87;;;1.90;;
10491;SDS011;5293;51.464;-2.566;2023-07-24T05:41:41;2.17;;;2.00;;
10491;SDS011;5293;51.464;-2.566;2023-07-24T05:44:06;2.90;;;1.90;;
10491;SDS011;5293;51.464;-2.566;2023-07-24T05:46:32;3.97;;;2.20;;
10491;SDS011;5293;51.464;-2.566;2023-07-24T05:48:58;1.83;;;1.73;;
10491;SDS011;5293;51.464;-2.566;2023-07-24T05:51:25;2.83;;;2.23;;
10491;SDS011;5293;51.464;-2.566;2023-07-24T05:53:51;3.23;;;2.03;;
10491;SDS011;5293;51.464;-2.566;2023-07-24T05:56:16;4.77;;;2.60;;
10491;SDS011;5293;51.464;-2.566;2023-07-24T05:58:42;3.33;;;2.43;;
10491;SDS011;5293;51.464;-2.566;2023-07-24T06:01:08;2.27;;;2.07;;
10491;SDS011;5293;51.464;-2.566;2023-07-24T06:03:35;3.57;;;2.13;;
10491;SDS011;5293;51.464;-2.566;2023-07-24T06:06:01;2.00;;;1.90;;
10491;SDS011;5293;51.464;-2.566;2023-07-24T06:08:27;1.83;;;1.60;;
10491;SDS011;5293;51.464;-2.566;2023-07-24T06:10:53;1.63;;;1.53;;
10491;SDS011;5293;51.464;-2.566;2023-07-24T06:13:19;1.37;;;1.30;;
10491;SDS011;5293;51.464;-2.566;2023-07-24T06:15:46;2.90;;;1.50;;
10491;SDS011;5293;51.464;-2.566;2023-07-24T06:18:13;0.97;;;0.80;;
10491;SDS011;5293;51.464;-2.566;2023-07-24T06:20:39;0.70;;;0.70;;
10491;SDS011;5293;51.464;-2.566;2023-07-24T06:23:05;0.60;;;0.60;;
10491;SDS011;5293;51.464;-2.566;2023-07-24T06:25:31;0.60;;;0.60;;
10491;SDS011;5293;51.464;-2.566;2023-07-24T06:27:57;1.00;;;0.67;;
10491;SDS011;5293;51.464;-2.566;2023-07-24T06:30:23;0.70;;;0.70;;
10491;SDS011;5293;51.464;-2.566;2023-07-24T06:32:49;3.90;;;1.23;;
10491;SDS011;5293;51.464;-2.566;2023-07-24T06:35:14;0.63;;;0.60;;
10491;SDS011;5293;51.464;-2.566;2023-07-24T06:37:40;0.50;;;0.50;;
10491;SDS011;5293;51.464;-2.566;2023-07-24T06:40:06;0.60;;;0.57;;
10491;SDS011;5293;51.464;-2.566;2023-07-24T06:42:33;0.20;;;0.20;;
10491;SDS011;5293;51.464;-2.566;2023-07-24T06:44:59;1.20;;;0.40;;
10491;SDS011;5293;51.464;-2.566;2023-07-24T06:47:24;0.93;;;0.20;;
10491;SDS011;5293;51.464;-2.566;2023-07-24T06:49:50;0.20;;;0.20;;
10491;SDS011;5293;51.464;-2.566;2023-07-24T06:52:16;0.17;;;0.17;;
10491;SDS011;5293;51.464;-2.566;2023-07-24T06:54:42;0.37;;;0.37;;
10491;SDS011;5293;51.464;-2.566;2023-07-24T06:57:07;0.20;;;0.20;;
10491;SDS011;5293;51.464;-2.566;2023-07-24T06:59:33;0.10;;;0.10;;
10491;SDS011;5293;51.464;-2.566;2023-07-24T07:01:59;0.43;;;0.20;;
10491;SDS011;5293;51.464;-2.566;2023-07-24T07:04:24;0.50;;;0.50;;
10491;SDS011;5293;51.464;-2.566;2023-07-24T07:06:50;0.97;;;0.30;;
10491;SDS011;5293;51.464;-2.566;2023-07-24T07:09:16;0.47;;;0.30;;
10491;SDS011;5293;51.464;-2.566;2023-07-24T07:11:41;0.20;;;0.20;;
10491;SDS011;5293;51.464;-2.566;2023-07-24T07:14:08;0.27;;;0.27;;
10491;SDS011;5293;51.464;-2.566;2023-07-24T07:16:34;0.40;;;0.27;;
10491;SDS011;5293;51.464;-2.566;2023-07-24T07:19:00;1.13;;;0.30;;
10491;SDS011;5293;51.464;-2.566;2023-07-24T07:21:26;0.23;;;0.23;;
10491;SDS011;5293;51.464;-2.566;2023-07-24T07:23:51;0.30;;;0.30;;
10491;SDS011;5293;51.464;-2.566;2023-07-24T07:26:17;0.30;;;0.20;;
10491;SDS011;5293;51.464;-2.566;2023-07-24T07:28:43;0.30;;;0.30;;
10491;SDS011;5293;51.464;-2.566;2023-07-24T07:31:12;0.10;;;0.10;;
10491;SDS011;5293;51.464;-2.566;2023-07-24T07:33:37;1.03;;;0.23;;
10491;SDS011;5293;51.464;-2.566;2023-07-24T07:36:03;0.17;;;0.17;;
10491;SDS011;5293;51.464;-2.566;2023-07-24T07:38:30;0.20;;;0.20;;
10491;SDS011;5293;51.464;-2.566;2023-07-24T07:40:56;0.67;;;0.20;;
10491;SDS011;5293;51.464;-2.566;2023-07-24T07:43:22;0.33;;;0.33;;
10491;SDS011;5293;51.464;-2.566;2023-07-24T07:45:48;0.10;;;0.10;;
10491;SDS011;5293;51.464;-2.566;2023-07-24T07:48:13;0.20;;;0.20;;
10491;SDS011;5293;51.464;-2.566;2023-07-24T07:50:39;0.10;;;0.10;;
10491;SDS011;5293;51.464;-2.566;2023-07-24T07:53:05;0.30;;;0.30;;
10491;SDS011;5293;51.464;-2.566;2023-07-24T07:55:31;0.20;;;0.20;;
10491;SDS011;5293;51.464;-2.566;2023-07-24T07:57:56;0.30;;;0.30;;
10491;SDS011;5293;51.464;-2.566;2023-07-24T08:00:22;0.20;;;0.20;;
10491;SDS011;5293;51.464;-2.566;2023-07-24T08:02:48;0.60;;;0.30;;
10491;SDS011;5293;51.464;-2.566;2023-07-24T08:05:13;0.40;;;0.30;;
10491;SDS011;5293;51.464;-2.566;2023-07-24T08:07:40;0.20;;;0.20;;
10491;SDS011;5293;51.464;-2.566;2023-07-24T08:10:06;0.20;;;0.20;;
10491;SDS011;5293;51.464;-2.566;2023-07-24T08:12:32;0.47;;;0.20;;
10491;SDS011;5293;51.464;-2.566;2023-07-24T08:14:57;0.20;;;0.20;;
10491;SDS011;5293;51.464;-2.566;2023-07-24T08:17:23;0.20;;;0.20;;
10491;SDS011;5293;51.464;-2.566;2023-07-24T08:19:48;0.33;;;0.33;;
10491;SDS011;5293;51.464;-2.566;2023-07-24T08:22:14;0.20;;;0.20;;
10491;SDS011;5293;51.464;-2.566;2023-07-24T08:24:40;0.20;;;0.20;;
10491;SDS011;5293;51.464;-2.566;2023-07-24T08:27:05;0.20;;;0.20;;
10491;SDS011;5293;51.464;-2.566;2023-07-24T08:29:31;0.50;;;0.30;;
10491;SDS011;5293;51.464;-2.566;2023-07-24T08:31:58;0.33;;;0.33;;
10491;SDS011;5293;51.464;-2.566;2023-07-24T08:34:23;0.30;;;0.30;;
10491;SDS011;5293;51.464;-2.566;2023-07-24T08:36:49;0.30;;;0.30;;
10491;SDS011;5293;51.464;-2.566;2023-07-24T08:39:15;0.30;;;0.20;;
10491;SDS011;5293;51.464;-2.566;2023-07-24T08:41:40;2.20;;;0.30;;
10491;SDS011;5293;51.464;-2.566;2023-07-24T08:44:09;1.47;;;0.50;;
10491;SDS011;5293;51.464;-2.566;2023-07-24T08:46:36;0.80;;;0.30;;
10491;SDS011;5293;51.464;-2.566;2023-07-24T08:49:03;0.40;;;0.40;;
10491;SDS011;5293;51.464;-2.566;2023-07-24T08:51:29;0.30;;;0.30;;
10491;SDS011;5293;51.464;-2.566;2023-07-24T08:53:56;0.30;;;0.30;;
10491;SDS011;5293;51.464;-2.566;2023-07-24T08:56:24;0.30;;;0.30;;
10491;SDS011;5293;51.464;-2.566;2023-07-24T08:58:49;0.40;;;0.40;;
10491;SDS011;5293;51.464;-2.566;2023-07-24T09:01:15;0.30;;;0.30;;
10491;SDS011;5293;51.464;-2.566;2023-07-24T09:03:41;0.40;;;0.40;;
10491;SDS011;5293;51.464;-2.566;2023-07-24T09:06:07;0.40;;;0.40;;
10491;SDS011;5293;51.464;-2.566;2023-07-24T09:08:33;2.07;;;0.77;;
10491;SDS011;5293;51.464;-2.566;2023-07-24T09:11:02;1.63;;;0.50;;
10491;SDS011;5293;51.464;-2.566;2023-07-24T09:13:28;0.53;;;0.53;;
10491;SDS011;5293;51.464;-2.566;2023-07-24T09:15:55;0.50;;;0.50;;
10491;SDS011;5293;51.464;-2.566;2023-07-24T09:18:21;1.03;;;0.40;;
10491;SDS011;5293;51.464;-2.566;2023-07-24T09:20:47;0.27;;;0.27;;
10491;SDS011;5293;51.464;-2.566;2023-07-24T09:23:14;0.47;;;0.47;;
10491;SDS011;5293;51.464;-2.566;2023-07-24T09:25:40;1.10;;;0.40;;
10491;SDS011;5293;51.464;-2.566;2023-07-24T09:28:14;0.47;;;0.47;;
10491;SDS011;5293;51.464;-2.566;2023-07-24T09:30:41;0.40;;;0.40;;
10491;SDS011;5293;51.464;-2.566;2023-07-24T09:33:16;0.60;;;0.60;;
10491;SDS011;5293;51.464;-2.566;2023-07-24T09:35:42;0.73;;;0.53;;
10491;SDS011;5293;51.464;-2.566;2023-07-24T09:38:09;0.50;;;0.50;;
10491;SDS011;5293;51.464;-2.566;2023-07-24T09:40:40;0.97;;;0.47;;
10491;SDS011;5293;51.464;-2.566;2023-07-24T09:43:20;0.60;;;0.43;;
10491;SDS011;5293;51.464;-2.566;2023-07-24T09:45:51;0.60;;;0.60;;
10491;SDS011;5293;51.464;-2.566;2023-07-24T09:48:18;0.63;;;0.53;;
10491;SDS011;5293;51.464;-2.566;2023-07-24T09:50:46;0.43;;;0.43;;
10491;SDS011;5293;51.464;-2.566;2023-07-24T09:53:25;0.60;;;0.60;;
10491;SDS011;5293;51.464;-2.566;2023-07-24T09:58:25;1.07;;;0.60;;
10491;SDS011;5293;51.464;-2.566;2023-07-24T10:00:54;0.53;;;0.53;;
10491;SDS011;5293;51.464;-2.566;2023-07-24T10:03:23;0.57;;;0.57;;
10491;SDS011;5293;51.464;-2.566;2023-07-24T10:05:50;0.65;;;0.57;;
10491;SDS011;5293;51.464;-2.566;2023-07-24T10:08:16;0.50;;;0.50;;
10491;SDS011;5293;51.464;-2.566;2023-07-24T10:10:45;1.00;;;0.70;;
10491;SDS011;5293;51.464;-2.566;2023-07-24T10:13:12;0.70;;;0.70;;
10491;SDS011;5293;51.464;-2.566;2023-07-24T10:15:43;0.53;;;0.53;;
10491;SDS011;5293;51.464;-2.566;2023-07-24T10:18:11;1.93;;;0.53;;
10491;SDS011;5293;51.464;-2.566;2023-07-24T10:20:37;1.23;;;0.70;;
10491;SDS011;5293;51.464;-2.566;2023-07-24T10:23:05;0.80;;;0.50;;
10491;SDS011;5293;51.464;-2.566;2023-07-24T10:25:33;0.57;;;0.47;;
10491;SDS011;5293;51.464;-2.566;2023-07-24T10:28:03;2.63;;;0.80;;
10491;SDS011;5293;51.464;-2.566;2023-07-24T10:30:36;0.50;;;0.50;;
10491;SDS011;5293;51.464;-2.566;2023-07-24T10:33:09;1.40;;;0.40;;
10491;SDS011;5293;51.464;-2.566;2023-07-24T10:35:39;3.00;;;0.50;;
10491;SDS011;5293;51.464;-2.566;2023-07-24T10:38:06;0.60;;;0.60;;
10491;SDS011;5293;51.464;-2.566;2023-07-24T10:40:32;0.67;;;0.50;;
10491;SDS011;5293;51.464;-2.566;2023-07-24T10:42:59;1.00;;;0.40;;
10491;SDS011;5293;51.464;-2.566;2023-07-24T10:45:38;7.57;;;5.47;;
10491;SDS011;5293;51.464;-2.566;2023-07-24T10:48:18;0.40;;;0.40;;
10491;SDS011;5293;51.464;-2.566;2023-07-24T10:50:46;0.70;;;0.70;;
10491;SDS011;5293;51.464;-2.566;2023-07-24T10:53:14;0.70;;;0.70;;
10491;SDS011;5293;51.464;-2.566;2023-07-24T10:55:41;0.93;;;0.90;;
10491;SDS011;5293;51.464;-2.566;2023-07-24T10:58:08;2.00;;;1.67;;
10491;SDS011;5293;51.464;-2.566;2023-07-24T11:00:34;2.60;;;2.33;;
10491;SDS011;5293;51.464;-2.566;2023-07-24T11:03:00;0.73;;;0.73;;
10491;SDS011;5293;51.464;-2.566;2023-07-24T11:05:26;0.87;;;0.60;;
10491;SDS011;5293;51.464;-2.566;2023-07-24T11:07:52;0.90;;;0.90;;
10491;SDS011;5293;51.464;-2.566;2023-07-24T11:10:18;1.10;;;0.60;;
10491;SDS011;5293;51.464;-2.566;2023-07-24T11:12:45;3.90;;;0.80;;
10491;SDS011;5293;51.464;-2.566;2023-07-24T11:15:12;0.60;;;0.60;;
10491;SDS011;5293;51.464;-2.566;2023-07-24T11:17:39;0.50;;;0.50;;
10491;SDS011;5293;51.464;-2.566;2023-07-24T11:20:07;0.50;;;0.50;;
10491;SDS011;5293;51.464;-2.566;2023-07-24T11:22:40;0.47;;;0.47;;
10491;SDS011;5293;51.464;-2.566;2023-07-24T11:25:08;0.50;;;0.50;;
10491;SDS011;5293;51.464;-2.566;2023-07-24T11:27:38;0.40;;;0.40;;
10491;SDS011;5293;51.464;-2.566;2023-07-24T11:30:06;0.67;;;0.67;;
10491;SDS011;5293;51.464;-2.566;2023-07-24T11:32:32;1.10;;;0.60;;
10491;SDS011;5293;51.464;-2.566;2023-07-24T11:34:58;0.60;;;0.60;;
10491;SDS011;5293;51.464;-2.566;2023-07-24T11:37:25;0.67;;;0.67;;
10491;SDS011;5293;51.464;-2.566;2023-07-24T11:39:58;0.60;;;0.60;;
10491;SDS011;5293;51.464;-2.566;2023-07-24T11:42:25;1.93;;;0.60;;
10491;SDS011;5293;51.464;-2.566;2023-07-24T11:44:52;0.87;;;0.70;;
10491;SDS011;5293;51.464;-2.566;2023-07-24T11:47:18;0.77;;;0.77;;
10491;SDS011;5293;51.464;-2.566;2023-07-24T11:49:44;1.20;;;0.90;;
10491;SDS011;5293;51.464;-2.566;2023-07-24T11:52:20;0.90;;;0.80;;
10491;SDS011;5293;51.464;-2.566;2023-07-24T11:54:46;3.27;;;0.90;;
10491;SDS011;5293;51.464;-2.566;2023-07-24T11:57:22;1.03;;;0.73;;
10491;SDS011;5293;51.464;-2.566;2023-07-24T11:59:48;0.87;;;0.87;;
10491;SDS011;5293;51.464;-2.566;2023-07-24T12:02:14;0.90;;;0.90;;
10491;SDS011;5293;51.464;-2.566;2023-07-24T12:04:39;1.33;;;1.00;;
10491;SDS011;5293;51.464;-2.566;2023-07-24T12:07:08;1.80;;;0.97;;
10491;SDS011;5293;51.464;-2.566;2023-07-24T12:09:34;1.17;;;1.10;;
10491;SDS011;5293;51.464;-2.566;2023-07-24T12:11:59;1.17;;;1.10;;
10491;SDS011;5293;51.464;-2.566;2023-07-24T12:14:27;1.00;;;0.90;;
10491;SDS011;5293;51.464;-2.566;2023-07-24T12:17:02;2.37;;;1.00;;
10491;SDS011;5293;51.464;-2.566;2023-07-24T12:19:31;2.33;;;1.07;;
10491;SDS011;5293;51.464;-2.566;2023-07-24T12:21:56;1.40;;;1.17;;
10491;SDS011;5293;51.464;-2.566;2023-07-24T12:24:22;1.10;;;0.70;;
10491;SDS011;5293;51.464;-2.566;2023-07-24T12:26:48;1.17;;;1.07;;
10491;SDS011;5293;51.464;-2.566;2023-07-24T12:29:13;1.17;;;1.03;;
10491;SDS011;5293;51.464;-2.566;2023-07-24T12:31:39;1.20;;;0.90;;
10491;SDS011;5293;51.464;-2.566;2023-07-24T12:34:06;0.70;;;0.70;;
10491;SDS011;5293;51.464;-2.566;2023-07-24T12:36:31;1.37;;;0.90;;
10491;SDS011;5293;51.464;-2.566;2023-07-24T12:38:57;1.80;;;1.00;;
10491;SDS011;5293;51.464;-2.566;2023-07-24T12:41:22;1.73;;;1.00;;
10491;SDS011;5293;51.464;-2.566;2023-07-24T12:43:48;1.00;;;1.00;;
10491;SDS011;5293;51.464;-2.566;2023-07-24T12:46:14;1.73;;;1.40;;
10491;SDS011;5293;51.464;-2.566;2023-07-24T12:48:39;3.10;;;1.30;;
10491;SDS011;5293;51.464;-2.566;2023-07-24T12:51:05;1.83;;;1.30;;
10491;SDS011;5293;51.464;-2.566;2023-07-24T12:53:31;1.57;;;1.27;;
10491;SDS011;5293;51.464;-2.566;2023-07-24T12:55:56;4.90;;;1.53;;
10491;SDS011;5293;51.464;-2.566;2023-07-24T12:58:22;1.40;;;1.33;;
10491;SDS011;5293;51.464;-2.566;2023-07-24T13:00:48;1.97;;;1.77;;
10491;SDS011;5293;51.464;-2.566;2023-07-24T13:03:13;3.23;;;1.67;;
10491;SDS011;5293;51.464;-2.566;2023-07-24T13:05:39;4.13;;;2.03;;
10491;SDS011;5293;51.464;-2.566;2023-07-24T13:08:05;2.83;;;1.73;;
10491;SDS011;5293;51.464;-2.566;2023-07-24T13:10:30;3.20;;;2.07;;
10491;SDS011;5293;51.464;-2.566;2023-07-24T13:12:57;1.90;;;1.80;;
10491;SDS011;5293;51.464;-2.566;2023-07-24T13:15:22;3.33;;;1.97;;
10491;SDS011;5293;51.464;-2.566;2023-07-24T13:17:48;3.57;;;1.80;;
10491;SDS011;5293;51.464;-2.566;2023-07-24T13:20:14;2.70;;;1.90;;
10491;SDS011;5293;51.464;-2.566;2023-07-24T13:22:39;2.57;;;2.10;;
10491;SDS011;5293;51.464;-2.566;2023-07-24T13:25:08;3.00;;;2.13;;
10491;SDS011;5293;51.464;-2.566;2023-07-24T13:27:33;4.00;;;1.77;;
10491;SDS011;5293;51.464;-2.566;2023-07-24T13:29:59;1.67;;;1.57;;
10491;SDS011;5293;51.464;-2.566;2023-07-24T13:32:25;2.87;;;2.27;;
10491;SDS011;5293;51.464;-2.566;2023-07-24T13:34:50;2.33;;;1.93;;
10491;SDS011;5293;51.464;-2.566;2023-07-24T13:37:16;1.87;;;1.67;;
10491;SDS011;5293;51.464;-2.566;2023-07-24T13:39:42;2.87;;;1.83;;
10491;SDS011;5293;51.464;-2.566;2023-07-24T13:42:07;3.17;;;1.70;;
10491;SDS011;5293;51.464;-2.566;2023-07-24T13:44:33;1.47;;;1.37;;
10491;SDS011;5293;51.464;-2.566;2023-07-24T13:46:58;2.13;;;1.53;;
10491;SDS011;5293;51.464;-2.566;2023-07-24T13:49:24;4.23;;;2.13;;
10491;SDS011;5293;51.464;-2.566;2023-07-24T13:51:50;4.47;;;1.83;;
10491;SDS011;5293;51.464;-2.566;2023-07-24T13:54:15;2.73;;;2.30;;
10491;SDS011;5293;51.464;-2.566;2023-07-24T13:56:41;7.60;;;4.77;;
10491;SDS011;5293;51.464;-2.566;2023-07-24T13:59:07;3.17;;;2.27;;
10491;SDS011;5293;51.464;-2.566;2023-07-24T14:01:32;10.00;;;2.47;;
10491;SDS011;5293;51.464;-2.566;2023-07-24T14:03:58;1.60;;;1.50;;
10491;SDS011;5293;51.464;-2.566;2023-07-24T14:06:25;3.53;;;2.10;;
10491;SDS011;5293;51.464;-2.566;2023-07-24T14:08:51;4.33;;;2.00;;
10491;SDS011;5293;51.464;-2.566;2023-07-24T14:11:16;7.27;;;2.70;;
10491;SDS011;5293;51.464;-2.566;2023-07-24T14:13:42;3.67;;;2.00;;
10491;SDS011;5293;51.464;-2.566;2023-07-24T14:16:10;4.17;;;2.20;;
10491;SDS011;5293;51.464;-2.566;2023-07-24T14:18:35;7.70;;;2.40;;
10491;SDS011;5293;51.464;-2.566;2023-07-24T14:21:01;5.07;;;2.57;;
10491;SDS011;5293;51.464;-2.566;2023-07-24T14:23:26;4.77;;;2.13;;
10491;SDS011;5293;51.464;-2.566;2023-07-24T14:25:52;5.07;;;2.20;;
10491;SDS011;5293;51.464;-2.566;2023-07-24T14:28:18;2.00;;;1.77;;
10491;SDS011;5293;51.464;-2.566;2023-07-24T14:30:43;4.97;;;2.10;;
10491;SDS011;5293;51.464;-2.566;2023-07-24T14:33:09;2.53;;;1.60;;
10491;SDS011;5293;51.464;-2.566;2023-07-24T14:35:35;3.13;;;1.97;;
10491;SDS011;5293;51.464;-2.566;2023-07-24T14:38:00;2.43;;;1.60;;
10491;SDS011;5293;51.464;-2.566;2023-07-24T14:40:26;3.50;;;1.80;;
10491;SDS011;5293;51.464;-2.566;2023-07-24T14:42:52;3.30;;;1.47;;
10491;SDS011;5293;51.464;-2.566;2023-07-24T14:45:18;6.93;;;1.70;;
10491;SDS011;5293;51.464;-2.566;2023-07-24T14:47:43;2.13;;;1.50;;